Time;durP1;ratioP1;P1;durP2;ratioP2;P2;SDS_P1;SDS_P2;PMS_P1;PMS_P2;Temp;Humidity;BMP_temperature;BMP_pressure;BME280_temperature;BME280_humidity;BME280_pressure;Samples;Min_cycle;Max_cycle;Signal;HPM_P1;HPM_P2
2023/11/06 00:00:08;;;;;;;9.55;2.53;;;;;;;-146.25;100.00;52532.44;2096847;28;35505;-73
2023/11/06 00:01:11;;;;;;;7.90;2.08;;;;;;;-146.25;100.00;52514.19;2097095;28;34385;-72
2023/11/06 00:02:13;;;;;;;4.93;2.00;;;;;;;-146.25;100.00;52516.22;2088264;28;35548;-73
2023/11/06 00:03:15;;;;;;;9.38;2.25;;;;;;;-146.25;100.00;52497.97;2088796;28;34039;-73
2023/11/06 00:04:17;;;;;;;9.52;2.00;;;;;;;-146.25;100.00;52526.34;2097164;28;38201;-73
2023/11/06 00:05:19;;;;;;;11.27;2.25;;;;;;;-146.25;100.00;52514.19;2097695;28;20041;-73
2023/11/06 00:06:21;;;;;;;7.18;1.88;;;;;;;-146.25;100.00;52485.81;2096903;28;34924;-73
2023/11/06 00:07:24;;;;;;;9.45;2.33;;;;;;;-146.25;100.00;52502.03;2097061;28;37416;-72
2023/11/06 00:08:26;;;;;;;7.88;1.90;;;;;;;-146.25;100.00;52528.38;2097167;28;31235;-72
2023/11/06 00:09:27;;;;;;;8.02;2.00;;;;;;;-146.25;100.00;52510.13;2096926;28;37064;-73
2023/11/06 00:10:29;;;;;;;7.30;1.60;;;;;;;-146.25;100.00;52522.28;2097474;28;20072;-73
2023/11/06 00:11:31;;;;;;;8.23;1.65;;;;;;;-146.25;100.00;52516.22;2097158;28;36245;-73
2023/11/06 00:12:32;;;;;;;10.50;1.88;;;;;;;-146.25;100.00;52504.03;2088543;28;34042;-73
2023/11/06 00:13:34;;;;;;;11.02;1.88;;;;;;;-146.25;100.00;52510.13;2088854;28;20125;-73
2023/11/06 00:14:36;;;;;;;10.23;1.90;;;;;;;-146.25;100.00;52528.38;2096984;28;31316;-73
2023/11/06 00:15:38;;;;;;;6.63;2.00;;;;;;;-146.25;100.00;52502.03;2088307;28;34043;-73
2023/11/06 00:16:39;;;;;;;10.65;1.80;;;;;;;-146.25;100.00;52522.28;2089122;28;20046;-73
2023/11/06 00:17:42;;;;;;;6.53;1.65;;;;;;;-146.25;100.00;52516.22;2096920;28;37025;-72
2023/11/06 00:18:46;;;;;;;9.77;2.00;;;;;;;-146.25;100.00;52528.38;2096922;28;34501;-72
2023/11/06 00:19:49;;;;;;;15.68;2.00;;;;;;;-146.25;100.00;52526.34;2087794;28;30720;-73
2023/11/06 00:20:53;;;;;;;10.60;1.90;;;;;;;-146.25;100.00;52534.47;2087699;28;36647;-72
2023/11/06 00:21:56;;;;;;;8.20;1.45;;;;;;;-146.25;100.00;52508.09;2097694;28;20221;-73
2023/11/06 00:22:58;;;;;;;8.13;1.48;;;;;;;-146.25;100.00;52512.16;2096880;28;39005;-73
2023/11/06 00:24:01;;;;;;;10.88;1.80;;;;;;;-146.25;100.00;52483.78;2096890;28;35371;-73
2023/11/06 00:25:07;;;;;;;11.30;2.08;;;;;;;-146.25;100.00;52508.09;2087685;28;32148;-72
2023/11/06 00:26:13;;;;;;;10.43;1.58;;;;;;;-146.25;100.00;52528.38;2088877;28;35294;-73
2023/11/06 00:27:25;;;;;;;6.40;1.55;;;;;;;-146.25;100.00;52479.72;2097595;28;20053;-73
2023/11/06 00:28:26;;;;;;;8.43;2.03;;;;;;;-146.25;100.00;52508.09;2087984;28;25182;-73
2023/11/06 00:29:29;;;;;;;8.98;1.40;;;;;;;-146.25;100.00;52510.13;2088384;28;23295;-73
2023/11/06 00:30:31;;;;;;;10.18;1.45;;;;;;;-146.25;100.00;52526.34;2087959;28;25383;-73
2023/11/06 00:31:41;;;;;;;4.38;1.13;;;;;;;-146.25;100.00;52520.28;2088036;28;26955;-73
2023/11/06 00:32:42;;;;;;;7.15;1.45;;;;;;;-146.25;100.00;52473.63;2088432;28;22311;-72
2023/11/06 00:33:44;;;;;;;13.27;1.70;;;;;;;-146.25;100.00;52506.06;2087263;28;36311;-72
2023/11/06 00:34:46;;;;;;;8.40;1.40;;;;;;;-146.25;100.00;52518.25;2079193;28;35607;-71
2023/11/06 00:35:48;;;;;;;9.75;1.65;;;;;;;-146.25;100.00;52506.06;2072690;28;20110;-72
2023/11/06 00:36:49;;;;;;;13.80;2.03;;;;;;;-146.25;100.00;52518.25;2079555;28;30879;-72
2023/11/06 00:37:51;;;;;;;8.38;1.50;;;;;;;-146.25;100.00;52518.25;2079334;28;33804;-73
2023/11/06 00:38:53;;;;;;;10.68;1.52;;;;;;;-146.25;100.00;52534.47;2080396;28;21880;-73
2023/11/06 00:39:55;;;;;;;6.60;1.23;;;;;;;-146.25;100.00;52502.03;2088846;28;29242;-73
2023/11/06 00:40:56;;;;;;;5.25;1.13;;;;;;;-146.25;100.00;52516.22;2080304;28;20237;-73
2023/11/06 00:41:58;;;;;;;7.70;1.10;;;;;;;-146.25;100.00;52542.56;2080080;28;28128;-73
2023/11/06 00:43:00;;;;;;;9.27;1.15;;;;;;;-146.25;100.00;52548.66;2089068;28;22899;-73
2023/11/06 00:44:03;;;;;;;6.20;1.10;;;;;;;-146.25;100.00;52532.44;2080161;28;20708;-72
2023/11/06 00:45:05;;;;;;;6.68;1.33;;;;;;;-146.25;100.00;52493.91;2071715;28;34900;-73
2023/11/06 00:46:07;;;;;;;7.78;1.80;;;;;;;-146.25;100.00;52526.34;2071739;28;30776;-73
2023/11/06 00:47:09;;;;;;;9.20;1.17;;;;;;;-146.25;100.00;52536.50;2071764;28;29642;-73
2023/11/06 00:48:11;;;;;;;5.97;1.02;;;;;;;-146.25;100.00;52489.84;2079742;28;27793;-73
2023/11/06 00:49:13;;;;;;;10.43;1.50;;;;;;;-146.25;100.00;52520.28;2088975;28;25676;-73
2023/11/06 00:50:16;;;;;;;5.93;1.33;;;;;;;-146.25;100.00;52516.22;2088881;28;27057;-73
2023/11/06 00:51:18;;;;;;;9.00;1.33;;;;;;;-146.25;100.00;52530.41;2089426;28;20784;-73
2023/11/06 00:52:19;;;;;;;9.23;1.40;;;;;;;-146.25;100.00;52530.41;2079515;28;31619;-73
2023/11/06 00:53:21;;;;;;;6.47;1.20;;;;;;;-146.25;100.00;52500.00;2080122;28;29276;-73
2023/11/06 00:54:25;;;;;;;13.15;1.60;;;;;;;-146.25;100.00;52477.69;2088845;28;26410;-72
2023/11/06 00:55:27;;;;;;;6.85;1.25;;;;;;;-146.25;100.00;52495.94;2088269;28;35291;-73
2023/11/06 00:56:29;;;;;;;4.50;1.55;;;;;;;-146.25;100.00;52530.41;2089179;28;20033;-73
2023/11/06 00:57:35;;;;;;;10.70;1.27;;;;;;;-146.25;100.00;52497.97;2088893;28;34399;-73
2023/11/06 00:58:39;;;;;;;4.85;1.30;;;;;;;-146.25;100.00;52508.09;2088924;28;23537;-73
2023/11/06 00:59:42;;;;;;;5.68;1.55;;;;;;;-146.25;100.00;52530.41;2079532;28;28546;-73
2023/11/06 01:00:46;;;;;;;5.95;1.50;;;;;;;-146.25;100.00;52514.19;2072437;28;20059;-73
2023/11/06 01:01:48;;;;;;;7.65;1.55;;;;;;;-146.25;100.00;52530.41;2080443;28;20048;-72
2023/11/06 01:02:50;;;;;;;6.95;1.83;;;;;;;-146.25;100.00;52502.03;2088254;28;29847;-73
2023/11/06 01:03:54;;;;;;;6.82;1.77;;;;;;;-146.25;100.00;52512.16;2088040;28;20918;-73
2023/11/06 01:04:56;;;;;;;6.80;1.60;;;;;;;-146.25;100.00;52491.88;2088846;28;20083;-73
2023/11/06 01:06:01;;;;;;;6.72;1.42;;;;;;;-146.25;100.00;52520.28;2080188;28;20057;-73
2023/11/06 01:07:03;;;;;;;7.82;1.60;;;;;;;-146.25;100.00;52491.88;2080532;28;34973;-72
2023/11/06 01:08:08;;;;;;;13.55;2.10;;;;;;;-146.25;100.00;52542.56;2097557;28;20048;-72
2023/11/06 01:09:11;;;;;;;7.95;1.95;;;;;;;-146.25;100.00;52510.13;2096832;28;28282;-73
2023/11/06 01:10:14;;;;;;;6.93;1.85;;;;;;;-146.25;100.00;52504.03;2097059;28;28166;-72
2023/11/06 01:11:16;;;;;;;10.15;1.98;;;;;;;-146.25;100.00;52522.28;2096539;28;32806;-73
2023/11/06 01:12:18;;;;;;;7.10;1.58;;;;;;;-146.25;100.00;52534.47;2080040;28;20136;-73
2023/11/06 01:13:20;;;;;;;10.10;2.20;;;;;;;-146.25;100.00;52530.41;2071602;28;27712;-72
2023/11/06 01:14:23;;;;;;;11.52;1.65;;;;;;;-146.25;100.00;52536.50;2088760;28;20112;-72
2023/11/06 01:15:31;;;;;;;7.60;1.80;;;;;;;-146.25;100.00;52508.09;2097283;28;20111;-72
2023/11/06 01:16:35;;;;;;;9.68;2.03;;;;;;;-146.25;100.00;52497.97;2087759;28;28408;-71
2023/11/06 01:17:37;;;;;;;6.55;1.80;;;;;;;-146.25;100.00;52479.72;2088303;28;20041;-72
2023/11/06 01:18:39;;;;;;;7.93;1.80;;;;;;;-146.25;100.00;52516.22;2095832;28;35859;-72
2023/11/06 01:19:41;;;;;;;11.45;2.10;;;;;;;-146.25;100.00;52489.84;2096988;28;31358;-73
2023/11/06 01:20:43;;;;;;;6.57;1.70;;;;;;;-146.25;100.00;52510.13;2079495;28;25151;-72
2023/11/06 01:21:46;;;;;;;4.10;1.70;;;;;;;-146.25;100.00;52534.47;2079629;28;30143;-72
2023/11/06 01:22:48;;;;;;;8.30;2.35;;;;;;;-146.25;100.00;52506.06;2096421;28;21020;-72
2023/11/06 01:23:50;;;;;;;8.27;2.10;;;;;;;-146.25;100.00;52493.91;2096010;28;31701;-72
2023/11/06 01:24:53;;;;;;;6.13;1.73;;;;;;;-146.25;100.00;52508.09;2096971;28;24726;-72
2023/11/06 01:25:56;;;;;;;6.75;1.80;;;;;;;-146.25;100.00;52524.31;2096885;28;28834;-72
2023/11/06 01:26:57;;;;;;;7.95;2.30;;;;;;;-146.25;100.00;52534.47;2087888;28;27507;-72
2023/11/06 01:27:59;;;;;;;7.35;2.03;;;;;;;-146.25;100.00;52528.38;2088386;28;20661;-73
2023/11/06 01:29:02;;;;;;;10.32;2.03;;;;;;;-146.25;100.00;52495.94;2097525;28;20033;-72
2023/11/06 01:30:10;;;;;;;5.68;2.08;;;;;;;-146.25;100.00;52485.81;2097110;28;20033;-72
2023/11/06 01:31:11;;;;;;;9.75;2.38;;;;;;;-146.25;100.00;52544.59;2097039;28;30407;-72
2023/11/06 01:32:13;;;;;;;5.70;2.20;;;;;;;-146.25;100.00;52534.47;2096710;28;31675;-72
2023/11/06 01:33:15;;;;;;;8.93;2.10;;;;;;;-146.25;100.00;52500.00;2096633;28;20807;-72
2023/11/06 01:34:17;;;;;;;8.00;1.95;;;;;;;-146.25;100.00;52504.03;2087783;28;32916;-73
2023/11/06 01:35:21;;;;;;;8.13;2.10;;;;;;;-146.25;100.00;52518.25;2087829;28;29335;-73
2023/11/06 01:36:25;;;;;;;7.30;2.22;;;;;;;-146.25;100.00;52491.88;2096370;28;31102;-72
2023/11/06 01:37:27;;;;;;;10.90;2.72;;;;;;;-146.25;100.00;52522.28;2096863;28;20037;-71
2023/11/06 01:38:30;;;;;;;4.70;1.90;;;;;;;-146.25;100.00;52497.97;2087866;28;24463;-73
2023/11/06 01:39:33;;;;;;;7.47;2.15;;;;;;;-146.25;100.00;52497.97;2088530;28;20033;-71
2023/11/06 01:40:34;;;;;;;7.97;1.92;;;;;;;-146.25;100.00;52514.19;2096971;28;28902;-72
2023/11/06 01:41:38;;;;;;;6.15;1.80;;;;;;;-146.25;100.00;52512.16;2087718;28;20111;-72
2023/11/06 01:42:40;;;;;;;7.63;1.92;;;;;;;-146.25;100.00;52497.97;2087758;28;24878;-72
2023/11/06 01:43:44;;;;;;;5.65;1.83;;;;;;;-146.25;100.00;52506.06;2096958;28;20782;-73
2023/11/06 01:44:45;;;;;;;9.13;1.95;;;;;;;-146.25;100.00;52514.19;2087362;28;30218;-70
2023/11/06 01:45:47;;;;;;;10.05;1.73;;;;;;;-146.25;100.00;52514.19;2079590;28;29055;-73
2023/11/06 01:46:49;;;;;;;5.07;1.95;;;;;;;-146.25;100.00;52532.44;2087945;28;23233;-72
2023/11/06 01:47:51;;;;;;;5.53;1.70;;;;;;;-146.25;100.00;52520.28;2079672;28;27906;-71
2023/11/06 01:48:54;;;;;;;8.70;2.08;;;;;;;-146.25;100.00;52530.41;2063865;28;20040;-73
2023/11/06 01:49:57;;;;;;;7.93;2.05;;;;;;;-146.25;100.00;52530.41;2071636;28;20074;-73
2023/11/06 01:50:59;;;;;;;6.93;1.60;;;;;;;-146.25;100.00;52504.03;2080232;28;23189;-73
2023/11/06 01:52:01;;;;;;;6.22;2.10;;;;;;;-146.25;100.00;52544.59;2087616;28;30701;-72
2023/11/06 01:53:09;;;;;;;7.65;1.70;;;;;;;-146.25;100.00;52518.25;2087891;28;29630;-72
2023/11/06 01:54:12;;;;;;;4.05;1.75;;;;;;;-146.25;100.00;52542.56;2080564;28;24213;-72
2023/11/06 01:55:13;;;;;;;6.07;1.95;;;;;;;-146.25;100.00;52524.31;2080789;28;20042;-73
2023/11/06 01:56:15;;;;;;;4.55;1.75;;;;;;;-146.25;100.00;52530.41;2088264;28;27199;-72
2023/11/06 01:57:20;;;;;;;6.68;1.80;;;;;;;-146.25;100.00;52566.91;2087708;28;20046;-73
2023/11/06 01:58:22;;;;;;;8.27;1.73;;;;;;;-146.25;100.00;52534.47;2080026;28;26787;-72
2023/11/06 01:59:25;;;;;;;8.02;2.05;;;;;;;-146.25;100.00;52506.06;2088474;28;20648;-72
2023/11/06 02:00:27;;;;;;;7.18;2.00;;;;;;;-146.25;100.00;52510.13;2080090;28;20854;-72
2023/11/06 02:01:35;;;;;;;7.07;1.85;;;;;;;-146.25;100.00;52487.81;2096665;28;20111;-73
2023/11/06 02:02:40;;;;;;;3.75;1.40;;;;;;;-146.25;100.00;52522.28;2096509;28;24578;-72
2023/11/06 02:03:42;;;;;;;6.82;1.92;;;;;;;-146.25;100.00;52510.13;2080023;28;20042;-72
2023/11/06 02:04:48;;;;;;;6.50;2.30;;;;;;;-146.25;100.00;52500.00;2080054;28;36975;-72
2023/11/06 02:05:51;;;;;;;8.00;2.33;;;;;;;-146.25;100.00;52493.91;2080949;28;20050;-72
2023/11/06 02:06:53;;;;;;;4.85;2.08;;;;;;;-146.25;100.00;52560.81;2087234;28;30388;-72
2023/11/06 02:07:55;;;;;;;6.22;2.30;;;;;;;-146.25;100.00;52554.75;2096936;28;25333;-73
2023/11/06 02:08:58;;;;;;;5.95;2.20;;;;;;;-146.25;100.00;52512.16;2087722;28;20041;-72
2023/11/06 02:10:00;;;;;;;6.22;2.30;;;;;;;-146.25;100.00;52534.47;2088277;28;24695;-72
2023/11/06 02:11:03;;;;;;;4.82;2.22;;;;;;;-146.25;100.00;52512.16;2096887;28;20167;-72
2023/11/06 02:12:07;;;;;;;6.57;2.00;;;;;;;-146.25;100.00;52512.16;2096561;28;28008;-72
2023/11/06 02:13:10;;;;;;;5.68;2.17;;;;;;;-146.25;100.00;52566.91;2096291;28;32856;-72
2023/11/06 02:14:12;;;;;;;8.43;2.78;;;;;;;-146.25;100.00;52595.28;2096481;28;24738;-72
2023/11/06 02:15:14;;;;;;;6.38;2.50;;;;;;;-146.25;100.00;52562.84;2087645;28;27187;-71
2023/11/06 02:16:16;;;;;;;7.25;2.85;;;;;;;-146.25;100.00;52510.13;2079935;28;20846;-72
2023/11/06 02:17:18;;;;;;;7.38;2.42;;;;;;;-146.25;100.00;52562.84;2079752;28;20049;-70
2023/11/06 02:18:22;;;;;;;4.30;2.45;;;;;;;-146.25;100.00;52530.41;2088059;28;20192;-72
2023/11/06 02:19:23;;;;;;;6.43;2.58;;;;;;;-146.25;100.00;52522.28;2087248;28;27299;-71
2023/11/06 02:20:25;;;;;;;4.15;2.70;;;;;;;-146.25;100.00;52540.53;2079413;28;32852;-72
2023/11/06 02:21:28;;;;;;;6.63;2.90;;;;;;;-146.25;100.00;52504.03;2079412;28;20049;-72
2023/11/06 02:22:32;;;;;;;5.32;2.85;;;;;;;-146.25;100.00;52532.44;2087619;28;31962;-72
2023/11/06 02:23:35;;;;;;;7.13;3.17;;;;;;;-146.25;100.00;52530.41;2079748;28;28277;-71
2023/11/06 02:24:38;;;;;;;5.80;3.00;;;;;;;-146.25;100.00;52479.72;2088135;28;28995;-72
2023/11/06 02:25:40;;;;;;;6.35;2.80;;;;;;;-146.25;100.00;52530.41;2087282;28;25896;-72
2023/11/06 02:26:42;;;;;;;8.10;3.30;;;;;;;-146.25;100.00;52554.75;2088138;28;26544;-72
2023/11/06 02:27:44;;;;;;;8.48;3.50;;;;;;;-146.25;100.00;52530.41;2086939;28;37826;-71
2023/11/06 02:28:54;;;;;;;6.82;3.08;;;;;;;-146.25;100.00;52562.84;2088098;28;22483;-72
2023/11/06 02:29:55;;;;;;;6.93;2.97;;;;;;;-146.25;100.00;52502.03;2096277;28;29157;-72
2023/11/06 02:30:58;;;;;;;7.07;3.40;;;;;;;-146.25;100.00;52522.28;2087991;28;20934;-72
2023/11/06 02:32:00;;;;;;;5.63;3.58;;;;;;;-146.25;100.00;52506.06;2087256;28;33444;-73
2023/11/06 02:33:02;;;;;;;6.90;3.35;;;;;;;-146.25;100.00;52510.13;2087452;28;28979;-72
2023/11/06 02:34:04;;;;;;;6.25;3.38;;;;;;;-146.25;100.00;52516.22;2086929;28;31892;-71
2023/11/06 02:35:07;;;;;;;7.47;3.33;;;;;;;-146.25;100.00;52530.41;2079207;28;27232;-72
2023/11/06 02:36:09;;;;;;;4.97;3.40;;;;;;;-146.25;100.00;52554.75;2079434;28;32313;-73
2023/11/06 02:37:11;;;;;;;7.95;3.00;;;;;;;-146.25;100.00;52487.81;2079147;28;24203;-72
2023/11/06 02:38:18;;;;;;;7.20;3.88;;;;;;;-146.25;100.00;52530.41;2079353;28;30101;-72
2023/11/06 02:39:20;;;;;;;8.38;3.40;;;;;;;-146.25;100.00;52502.03;2088089;28;34694;-72
2023/11/06 02:40:22;;;;;;;8.77;3.67;;;;;;;-146.25;100.00;52473.63;2087882;28;22418;-72
2023/11/06 02:41:24;;;;;;;9.68;4.22;;;;;;;-146.25;100.00;52485.81;2088631;28;25279;-71
2023/11/06 02:42:25;;;;;;;9.73;4.20;;;;;;;-146.25;100.00;52544.59;2078849;28;35067;-73
2023/11/06 02:43:28;;;;;;;5.97;3.80;;;;;;;-146.25;100.00;52500.00;2079289;28;28097;-72
2023/11/06 02:44:30;;;;;;;6.93;3.83;;;;;;;-146.25;100.00;52510.13;2078898;28;29164;-72
2023/11/06 02:45:31;;;;;;;6.57;3.83;;;;;;;-146.25;100.00;52530.41;2079541;28;22678;-72
2023/11/06 02:46:33;;;;;;;9.80;4.25;;;;;;;-146.25;100.00;52526.34;2088060;28;28949;-72
2023/11/06 02:47:35;;;;;;;8.10;4.35;;;;;;;-146.25;100.00;52530.41;2088248;28;27287;-73
2023/11/06 02:48:37;;;;;;;8.57;4.63;;;;;;;-146.25;100.00;52526.34;2086543;28;27108;-72
2023/11/06 02:49:38;;;;;;;9.25;4.85;;;;;;;-146.25;100.00;52514.19;2088615;28;20068;-72
2023/11/06 02:50:40;;;;;;;6.60;4.50;;;;;;;-146.25;100.00;52506.06;2087770;28;36917;-72
2023/11/06 02:51:42;;;;;;;8.35;4.80;;;;;;;-146.25;100.00;52510.13;2079448;28;28940;-72
2023/11/06 02:52:45;;;;;;;10.88;4.85;;;;;;;-146.25;100.00;52510.13;2079977;28;20045;-72
2023/11/06 02:53:46;;;;;;;6.75;4.43;;;;;;;-146.25;100.00;52518.25;2078959;28;33747;-72
2023/11/06 02:54:52;;;;;;;12.18;4.93;;;;;;;-146.25;100.00;52514.19;2079425;28;20053;-72
2023/11/06 02:55:55;;;;;;;10.75;4.88;;;;;;;-146.25;100.00;52518.25;2080115;28;29979;-72
2023/11/06 02:56:57;;;;;;;10.15;5.15;;;;;;;-146.25;100.00;52506.06;2087419;28;30104;-72
2023/11/06 02:58:02;;;;;;;9.85;4.95;;;;;;;-146.25;100.00;52534.47;2088287;28;27594;-72
2023/11/06 02:59:08;;;;;;;11.02;5.03;;;;;;;-146.25;100.00;52546.63;2087926;28;20088;-73
2023/11/06 03:00:11;;;;;;;12.25;5.53;;;;;;;-146.25;100.00;52526.34;2088301;28;20108;-72
2023/11/06 03:01:13;;;;;;;7.72;4.82;;;;;;;-146.25;100.00;52508.09;2096171;28;25331;-72
2023/11/06 03:02:15;;;;;;;9.40;5.32;;;;;;;-146.25;100.00;52520.28;2095549;28;35936;-72
2023/11/06 03:03:20;;;;;;;9.73;5.25;;;;;;;-146.25;100.00;52534.47;2095090;28;32595;-72
2023/11/06 03:04:22;;;;;;;9.50;5.78;;;;;;;-146.25;100.00;52514.19;2087414;28;28781;-71
2023/11/06 03:05:23;;;;;;;9.93;5.55;;;;;;;-146.25;100.00;52485.81;2087989;28;26938;-71
2023/11/06 03:06:28;;;;;;;13.63;5.50;;;;;;;-146.25;100.00;52530.41;2087248;28;20030;-71
2023/11/06 03:07:31;;;;;;;8.27;5.35;;;;;;;-146.25;100.00;52520.28;2079241;28;33875;-71
2023/11/06 03:08:33;;;;;;;9.88;5.18;;;;;;;-146.25;100.00;52544.59;2087320;28;35088;-72
2023/11/06 03:09:34;;;;;;;9.13;5.45;;;;;;;-146.25;100.00;52526.34;2087120;28;23142;-72
2023/11/06 03:10:38;;;;;;;8.93;5.28;;;;;;;-146.25;100.00;52534.47;2079339;28;25706;-72
2023/11/06 03:11:40;;;;;;;12.23;6.07;;;;;;;-146.25;100.00;52489.84;2088060;28;26869;-73
2023/11/06 03:12:42;;;;;;;10.40;5.55;;;;;;;-146.25;100.00;52550.69;2087123;28;34548;-74
2023/11/06 03:13:44;;;;;;;11.07;5.72;;;;;;;-146.25;100.00;52506.06;2079186;28;25275;-73
2023/11/06 03:14:46;;;;;;;13.65;5.85;;;;;;;-146.25;100.00;52554.75;2087658;28;26628;-73
2023/11/06 03:15:48;;;;;;;8.00;6.38;;;;;;;-146.25;100.00;52493.91;2087332;28;20048;-74
2023/11/06 03:16:50;;;;;;;10.02;6.45;;;;;;;-146.25;100.00;52502.03;2087270;28;30075;-74
2023/11/06 03:17:52;;;;;;;11.25;6.80;;;;;;;-146.25;100.00;52500.00;2086615;28;35423;-74
2023/11/06 03:18:57;;;;;;;10.23;6.45;;;;;;;-146.25;100.00;52544.59;2079317;28;28288;-74
2023/11/06 03:19:59;;;;;;;15.52;6.32;;;;;;;-146.25;100.00;52560.81;2087700;28;27432;-74
2023/11/06 03:21:02;;;;;;;12.15;6.65;;;;;;;-146.25;100.00;52518.25;2087309;28;28445;-74
2023/11/06 03:22:04;;;;;;;8.98;6.50;;;;;;;-146.25;100.00;52502.03;2087342;28;27814;-73
2023/11/06 03:23:05;;;;;;;13.13;7.22;;;;;;;-146.25;100.00;52483.78;2096193;28;29480;-73
2023/11/06 03:24:08;;;;;;;11.93;6.47;;;;;;;-146.25;100.00;52508.09;2095588;28;28554;-74
2023/11/06 03:25:09;;;;;;;13.63;6.85;;;;;;;-146.25;100.00;52522.28;2096232;28;30407;-72
2023/11/06 03:26:11;;;;;;;8.00;6.55;;;;;;;-146.25;100.00;52506.06;2096492;28;20045;-72
2023/11/06 03:27:13;;;;;;;10.70;6.95;;;;;;;-146.25;100.00;52530.41;2096608;28;23242;-72
2023/11/06 03:28:15;;;;;;;12.35;7.25;;;;;;;-146.25;100.00;52526.34;2095822;28;32825;-72
2023/11/06 03:29:17;;;;;;;10.85;7.25;;;;;;;-146.25;100.00;52562.84;2087233;28;29697;-73
2023/11/06 03:30:19;;;;;;;13.20;7.68;;;;;;;-146.25;100.00;52489.84;2087602;28;22498;-72
2023/11/06 03:31:21;;;;;;;12.02;7.55;;;;;;;-146.25;100.00;52536.50;2096246;28;32485;-71
2023/11/06 03:32:22;;;;;;;11.27;7.45;;;;;;;-146.25;100.00;52491.88;2095761;28;32191;-72
2023/11/06 03:33:24;;;;;;;14.48;8.00;;;;;;;-146.25;100.00;52510.13;2096793;28;31676;-72
2023/11/06 03:34:26;;;;;;;10.35;7.03;;;;;;;-146.25;100.00;52512.16;2086799;28;32924;-71
2023/11/06 03:35:31;;;;;;;12.07;7.45;;;;;;;-146.25;100.00;52495.94;2087268;28;28919;-72
2023/11/06 03:36:40;;;;;;;10.80;7.45;;;;;;;-146.25;100.00;52497.97;2095048;28;23852;-72
2023/11/06 03:37:43;;;;;;;11.30;7.28;;;;;;;-146.25;100.00;52516.22;2087074;28;30342;-71
2023/11/06 03:38:46;;;;;;;10.88;7.00;;;;;;;-146.25;100.00;52510.13;2088229;28;26320;-72
2023/11/06 03:39:47;;;;;;;11.13;8.43;;;;;;;-146.25;100.00;52508.09;2086848;28;35902;-72
2023/11/06 03:40:49;;;;;;;12.73;7.95;;;;;;;-146.25;100.00;52526.34;2078789;28;33639;-72
2023/11/06 03:41:54;;;;;;;12.93;7.97;;;;;;;-146.25;100.00;52475.66;2079347;28;25606;-72
2023/11/06 03:42:58;;;;;;;11.07;8.02;;;;;;;-146.25;100.00;52554.75;2088096;28;29270;-73
2023/11/06 03:44:01;;;;;;;12.70;8.20;;;;;;;-146.25;100.00;52500.00;2087728;28;20069;-72
2023/11/06 03:45:04;;;;;;;17.33;8.30;;;;;;;-146.25;100.00;52502.03;2087369;28;20042;-71
2023/11/06 03:46:05;;;;;;;11.98;8.30;;;;;;;-146.25;100.00;52520.28;2087351;28;27725;-72
2023/11/06 03:47:07;;;;;;;13.70;8.40;;;;;;;-146.25;100.00;52510.13;2087645;28;20046;-71
2023/11/06 03:48:10;;;;;;;12.60;8.25;;;;;;;-146.25;100.00;52520.28;2096819;28;21004;-72
2023/11/06 03:49:12;;;;;;;15.85;8.63;;;;;;;-146.25;100.00;52506.06;2095613;28;27952;-71
2023/11/06 03:50:14;;;;;;;12.95;8.93;;;;;;;-146.25;100.00;52491.88;2096182;28;25847;-73
2023/11/06 03:51:15;;;;;;;15.20;8.85;;;;;;;-146.25;100.00;52536.50;2086794;28;29020;-72
2023/11/06 03:52:19;;;;;;;13.57;9.13;;;;;;;-146.25;100.00;52548.66;2087341;28;33039;-73
2023/11/06 03:53:21;;;;;;;10.65;8.07;;;;;;;-146.25;100.00;52520.28;2086961;28;22423;-72
2023/11/06 03:54:24;;;;;;;13.82;8.57;;;;;;;-146.25;100.00;52522.28;2087425;28;34782;-71
2023/11/06 03:55:26;;;;;;;12.43;7.95;;;;;;;-146.25;100.00;52510.13;2095382;28;37472;-72
2023/11/06 03:56:28;;;;;;;11.98;7.60;;;;;;;-146.25;100.00;52534.47;2096507;28;31509;-72
2023/11/06 03:57:30;;;;;;;14.25;8.82;;;;;;;-146.25;100.00;52506.06;2096357;28;20041;-72
2023/11/06 03:58:32;;;;;;;16.42;8.55;;;;;;;-146.25;100.00;52516.22;2095797;28;36608;-73
2023/11/06 03:59:34;;;;;;;11.70;8.48;;;;;;;-146.25;100.00;52532.44;2095725;28;32402;-72
2023/11/06 04:00:35;;;;;;;13.85;8.50;;;;;;;-146.25;100.00;52522.28;2086830;28;33992;-73
2023/11/06 04:01:38;;;;;;;11.27;7.22;;;;;;;-146.25;100.00;52542.56;2086438;28;36384;-72
2023/11/06 04:02:39;;;;;;;14.18;8.63;;;;;;;-146.25;100.00;52534.47;2096148;28;34345;-72
2023/11/06 04:03:41;;;;;;;13.65;8.25;;;;;;;-146.25;100.00;52560.81;2095194;28;35863;-72
2023/11/06 04:04:43;;;;;;;13.15;8.13;;;;;;;-146.25;100.00;52546.63;2087150;28;34587;-71
2023/11/06 04:05:45;;;;;;;13.50;8.32;;;;;;;-146.25;100.00;52530.41;2087073;28;33719;-72
2023/11/06 04:06:46;;;;;;;12.25;7.65;;;;;;;-146.25;100.00;52570.97;2097980;28;20080;-72
2023/11/06 04:07:48;;;;;;;11.38;8.27;;;;;;;-146.25;100.00;52524.31;2097211;28;34597;-72
2023/11/06 04:08:50;;;;;;;10.98;7.57;;;;;;;-146.25;100.00;52526.34;2097576;28;33971;-72
2023/11/06 04:09:52;;;;;;;11.48;7.40;;;;;;;-146.25;100.00;52506.06;2097006;28;33482;-72
2023/11/06 04:10:53;;;;;;;15.00;8.05;;;;;;;-146.25;100.00;52544.59;2096942;28;35527;-72
2023/11/06 04:11:55;;;;;;;11.20;7.15;;;;;;;-146.25;100.00;52514.19;2097779;28;20869;-71
2023/11/06 04:12:57;;;;;;;13.25;8.05;;;;;;;-146.25;100.00;52564.88;2097250;28;37072;-72
2023/11/06 04:13:59;;;;;;;15.20;7.63;;;;;;;-146.25;100.00;52471.59;2097087;28;35479;-71
2023/11/06 04:15:05;;;;;;;13.05;6.63;;;;;;;-146.25;100.00;52546.63;2089058;28;20045;-72
2023/11/06 04:16:07;;;;;;;8.52;7.05;;;;;;;-146.25;100.00;52550.69;2088778;28;36598;-71
2023/11/06 04:17:10;;;;;;;12.90;7.45;;;;;;;-146.25;100.00;52477.69;2098131;28;20826;-72
2023/11/06 04:18:12;;;;;;;10.30;6.57;;;;;;;-146.25;100.00;52497.97;2097491;28;30497;-72
2023/11/06 04:19:14;;;;;;;14.32;6.35;;;;;;;-146.25;100.00;52495.94;2097032;28;38673;-71
2023/11/06 04:20:16;;;;;;;10.43;6.50;;;;;;;-146.25;100.00;52536.50;2097458;28;20045;-71
2023/11/06 04:21:17;;;;;;;9.00;6.15;;;;;;;-146.25;100.00;52510.13;2096785;28;34006;-72
2023/11/06 04:22:20;;;;;;;9.20;5.93;;;;;;;-146.25;100.00;52497.97;2097708;28;20126;-71
2023/11/06 04:23:24;;;;;;;10.68;6.45;;;;;;;-146.25;100.00;52532.44;2098084;28;20029;-72
2023/11/06 04:24:25;;;;;;;12.57;6.18;;;;;;;-146.25;100.00;52514.19;2096852;28;38016;-72
2023/11/06 04:25:27;;;;;;;10.40;6.45;;;;;;;-146.25;100.00;52550.69;2097101;28;36891;-72
2023/11/06 04:26:29;;;;;;;13.02;6.10;;;;;;;-146.25;100.00;52516.22;2097746;28;20106;-71
2023/11/06 04:27:31;;;;;;;10.57;6.82;;;;;;;-146.25;100.00;52510.13;2097029;28;32404;-72
2023/11/06 04:28:32;;;;;;;9.70;5.88;;;;;;;-146.25;100.00;52516.22;2096802;28;34676;-72
2023/11/06 04:29:36;;;;;;;8.13;5.90;;;;;;;-146.25;100.00;52502.03;2097955;28;20045;-72
2023/11/06 04:30:38;;;;;;;9.70;6.80;;;;;;;-146.25;100.00;52518.25;2087864;28;38570;-72
2023/11/06 04:31:40;;;;;;;8.80;6.22;;;;;;;-146.25;100.00;52550.69;2088789;28;34908;-72
2023/11/06 04:32:42;;;;;;;12.05;6.40;;;;;;;-146.25;100.00;52504.03;2097539;28;20115;-72
2023/11/06 04:33:44;;;;;;;8.38;6.60;;;;;;;-146.25;100.00;52491.88;2097156;28;32765;-71
2023/11/06 04:34:45;;;;;;;12.65;5.97;;;;;;;-146.25;100.00;52552.72;2087733;28;37007;-69
2023/11/06 04:35:47;;;;;;;10.35;6.45;;;;;;;-146.25;100.00;52532.44;2088689;28;33005;-72
2023/11/06 04:36:50;;;;;;;10.82;6.57;;;;;;;-146.25;100.00;52514.19;2096599;28;36717;-71
2023/11/06 04:37:52;;;;;;;8.88;6.53;;;;;;;-146.25;100.00;52520.28;2097161;28;34080;-73
2023/11/06 04:38:54;;;;;;;9.13;6.50;;;;;;;-146.25;100.00;52493.91;2097769;28;31849;-71
2023/11/06 04:39:55;;;;;;;13.73;6.93;;;;;;;-146.25;100.00;52510.13;2097217;28;36979;-72
2023/11/06 04:40:57;;;;;;;9.73;7.03;;;;;;;-146.25;100.00;52528.38;2096742;28;34414;-72
2023/11/06 04:41:59;;;;;;;10.45;7.07;;;;;;;-146.25;100.00;52506.06;2097273;28;32635;-72
2023/11/06 04:43:03;;;;;;;11.23;7.03;;;;;;;-146.25;100.00;52493.91;2097497;28;20496;-72